sensor_id;sensor_type;location;lat;lon;timestamp;pressure;altitude;pressure_sealevel;temperature;humidity
21980;BME280;11154;48.558;9.234;2023-09-12T00:00:05;97196.16;;;23.39;92.72
21980;BME280;11154;48.558;9.234;2023-09-12T00:02:07;97189.09;;;23.38;95.12
21980;BME280;11154;48.558;9.234;2023-09-12T00:04:11;97187.13;;;23.33;96.49
21980;BME280;11154;48.558;9.234;2023-09-12T00:06:13;97188.94;;;23.28;96.69
21980;BME280;11154;48.558;9.234;2023-09-12T00:08:14;97185.34;;;23.23;97.42
21980;BME280;11154;48.558;9.234;2023-09-12T00:10:16;97182.03;;;23.21;97.95
21980;BME280;11154;48.558;9.234;2023-09-12T00:12:17;97190.09;;;23.16;98.74
21980;BME280;11154;48.558;9.234;2023-09-12T00:14:18;97188.72;;;23.13;98.50
21980;BME280;11154;48.558;9.234;2023-09-12T00:16:20;97193.56;;;23.11;98.08
21980;BME280;11154;48.558;9.234;2023-09-12T00:18:21;97192.97;;;23.09;98.72
21980;BME280;11154;48.558;9.234;2023-09-12T00:20:24;97182.63;;;23.06;98.94
21980;BME280;11154;48.558;9.234;2023-09-12T00:22:25;97186.66;;;23.04;99.69
21980;BME280;11154;48.558;9.234;2023-09-12T00:24:27;97187.91;;;23.01;99.82
21980;BME280;11154;48.558;9.234;2023-09-12T00:26:27;97182.50;;;23.01;100.00
21980;BME280;11154;48.558;9.234;2023-09-12T00:28:30;97184.66;;;22.99;100.00
21980;BME280;11154;48.558;9.234;2023-09-12T00:30:33;97181.34;;;22.97;99.83
21980;BME280;11154;48.558;9.234;2023-09-12T00:32:35;97181.03;;;22.94;100.00
21980;BME280;11154;48.558;9.234;2023-09-12T00:34:36;97191.88;;;22.94;100.00
21980;BME280;11154;48.558;9.234;2023-09-12T00:36:39;97189.41;;;22.92;99.96
21980;BME280;11154;48.558;9.234;2023-09-12T00:38:39;97191.53;;;22.90;100.00
21980;BME280;11154;48.558;9.234;2023-09-12T00:40:41;97184.72;;;22.88;100.00
21980;BME280;11154;48.558;9.234;2023-09-12T00:42:43;97189.81;;;22.84;100.00
21980;BME280;11154;48.558;9.234;2023-09-12T00:44:45;97186.63;;;22.87;100.00
21980;BME280;11154;48.558;9.234;2023-09-12T00:46:46;97186.13;;;22.90;100.00
21980;BME280;11154;48.558;9.234;2023-09-12T00:48:49;97186.13;;;22.90;100.00
21980;BME280;11154;48.558;9.234;2023-09-12T00:50:52;97184.00;;;22.92;100.00
21980;BME280;11154;48.558;9.234;2023-09-12T00:52:55;97174.78;;;22.93;100.00
21980;BME280;11154;48.558;9.234;2023-09-12T00:54:57;97179.16;;;22.94;99.60
21980;BME280;11154;48.558;9.234;2023-09-12T00:57:00;97172.88;;;22.94;99.92
21980;BME280;11154;48.558;9.234;2023-09-12T00:59:03;97165.59;;;22.94;99.94
21980;BME280;11154;48.558;9.234;2023-09-12T01:01:06;97173.22;;;22.97;100.00
21980;BME280;11154;48.558;9.234;2023-09-12T01:03:09;97169.91;;;22.95;100.00
21980;BME280;11154;48.558;9.234;2023-09-12T01:05:11;97168.63;;;22.98;100.00
21980;BME280;11154;48.558;9.234;2023-09-12T01:07:14;97175.94;;;22.97;100.00
21980;BME280;11154;48.558;9.234;2023-09-12T01:09:17;97178.91;;;22.96;99.37
21980;BME280;11154;48.558;9.234;2023-09-12T01:11:20;97171.03;;;22.94;98.40
21980;BME280;11154;48.558;9.234;2023-09-12T01:13:23;97178.31;;;22.94;97.10
21980;BME280;11154;48.558;9.234;2023-09-12T01:15:25;97178.81;;;22.91;96.42
21980;BME280;11154;48.558;9.234;2023-09-12T01:17:28;97179.22;;;22.83;95.94
21980;BME280;11154;48.558;9.234;2023-09-12T01:19:30;97181.94;;;22.83;96.46
21980;BME280;11154;48.558;9.234;2023-09-12T01:22:01;97187.03;;;22.79;96.34
21980;BME280;11154;48.558;9.234;2023-09-12T01:24:27;97174.78;;;22.77;96.73
21980;BME280;11154;48.558;9.234;2023-09-12T01:26:41;97182.34;;;22.75;97.01
21980;BME280;11154;48.558;9.234;2023-09-12T01:28:47;97181.75;;;22.73;96.70
21980;BME280;11154;48.558;9.234;2023-09-12T01:30:51;97186.94;;;22.74;96.78
21980;BME280;11154;48.558;9.234;2023-09-12T01:32:53;97185.31;;;22.73;97.53
21980;BME280;11154;48.558;9.234;2023-09-12T01:34:55;97187.44;;;22.71;97.40
21980;BME280;11154;48.558;9.234;2023-09-12T01:36:57;97187.69;;;22.70;97.25
21980;BME280;11154;48.558;9.234;2023-09-12T01:38:58;97184.38;;;22.68;97.57
21980;BME280;11154;48.558;9.234;2023-09-12T01:41:00;97189.81;;;22.68;96.80
21980;BME280;11154;48.558;9.234;2023-09-12T01:43:04;97184.63;;;22.66;96.58
21980;BME280;11154;48.558;9.234;2023-09-12T01:45:10;97197.38;;;22.66;96.27
21980;BME280;11154;48.558;9.234;2023-09-12T01:47:13;97186.63;;;22.71;96.09
21980;BME280;11154;48.558;9.234;2023-09-12T01:49:18;97192.59;;;22.73;96.27
21980;BME280;11154;48.558;9.234;2023-09-12T01:51:21;97189.66;;;22.74;96.40
21980;BME280;11154;48.558;9.234;2023-09-12T01:53:23;97187.75;;;22.75;96.53
21980;BME280;11154;48.558;9.234;2023-09-12T01:55:25;97191.06;;;22.77;96.88
21980;BME280;11154;48.558;9.234;2023-09-12T01:57:27;97192.13;;;22.76;96.66
21980;BME280;11154;48.558;9.234;2023-09-12T01:59:29;97185.63;;;22.77;97.38
21980;BME280;11154;48.558;9.234;2023-09-12T02:01:31;97184.31;;;22.79;96.88
21980;BME280;11154;48.558;9.234;2023-09-12T02:03:33;97187.03;;;22.79;96.82
21980;BME280;11154;48.558;9.234;2023-09-12T02:05:35;97183.72;;;22.77;96.08
21980;BME280;11154;48.558;9.234;2023-09-12T02:07:39;97176.66;;;22.76;95.98
21980;BME280;11154;48.558;9.234;2023-09-12T02:09:40;97187.44;;;22.71;96.91
21980;BME280;11154;48.558;9.234;2023-09-12T02:11:42;97183.56;;;22.67;97.26
21980;BME280;11154;48.558;9.234;2023-09-12T02:13:43;97177.56;;;22.65;97.03
21980;BME280;11154;48.558;9.234;2023-09-12T02:15:45;97187.00;;;22.63;97.41
21980;BME280;11154;48.558;9.234;2023-09-12T02:17:48;97181.84;;;22.61;97.28
21980;BME280;11154;48.558;9.234;2023-09-12T02:19:51;97186.09;;;22.57;97.27
21980;BME280;11154;48.558;9.234;2023-09-12T02:21:52;97185.28;;;22.57;97.64
21980;BME280;11154;48.558;9.234;2023-09-12T02:23:54;97181.53;;;22.19;98.48
21980;BME280;11154;48.558;9.234;2023-09-12T02:25:55;97177.78;;;21.80;100.00
21980;BME280;11154;48.558;9.234;2023-09-12T02:27:57;97177.03;;;21.57;100.00
21980;BME280;11154;48.558;9.234;2023-09-12T02:29:59;97173.13;;;21.42;100.00
21980;BME280;11154;48.558;9.234;2023-09-12T02:31:59;97179.63;;;21.29;100.00
21980;BME280;11154;48.558;9.234;2023-09-12T02:34:02;97168.66;;;21.24;100.00
21980;BME280;11154;48.558;9.234;2023-09-12T02:36:04;97170.81;;;21.22;100.00
21980;BME280;11154;48.558;9.234;2023-09-12T02:38:06;97175.03;;;21.18;100.00
21980;BME280;11154;48.558;9.234;2023-09-12T02:40:08;97168.22;;;21.16;100.00
21980;BME280;11154;48.558;9.234;2023-09-12T02:42:12;97167.63;;;21.14;100.00
21980;BME280;11154;48.558;9.234;2023-09-12T02:44:12;97171.84;;;21.10;100.00
21980;BME280;11154;48.558;9.234;2023-09-12T02:46:14;97164.44;;;21.05;100.00
21980;BME280;11154;48.558;9.234;2023-09-12T02:48:15;97156.81;;;21.03;100.00
21980;BME280;11154;48.558;9.234;2023-09-12T02:50:18;97162.69;;;21.00;100.00
21980;BME280;11154;48.558;9.234;2023-09-12T02:52:20;97155.75;;;20.92;100.00
21980;BME280;11154;48.558;9.234;2023-09-12T02:54:22;97154.56;;;20.88;100.00
21980;BME280;11154;48.558;9.234;2023-09-12T02:56:22;97153.63;;;20.83;100.00
21980;BME280;11154;48.558;9.234;2023-09-12T02:58:24;97160.09;;;20.82;100.00
21980;BME280;11154;48.558;9.234;2023-09-12T03:00:25;97170.31;;;20.80;100.00
21980;BME280;11154;48.558;9.234;2023-09-12T03:02:27;97161.63;;;20.78;100.00
21980;BME280;11154;48.558;9.234;2023-09-12T03:04:29;97157.28;;;20.77;100.00
21980;BME280;11154;48.558;9.234;2023-09-12T03:06:31;97163.72;;;20.76;100.00
21980;BME280;11154;48.558;9.234;2023-09-12T03:08:33;97160.63;;;20.72;100.00
21980;BME280;11154;48.558;9.234;2023-09-12T03:10:34;97162.53;;;20.72;100.00
21980;BME280;11154;48.558;9.234;2023-09-12T03:12:35;97156.03;;;20.73;100.00
21980;BME280;11154;48.558;9.234;2023-09-12T03:14:37;97161.44;;;20.73;100.00
21980;BME280;11154;48.558;9.234;2023-09-12T03:16:39;97155.34;;;20.66;100.00
21980;BME280;11154;48.558;9.234;2023-09-12T03:18:41;97162.03;;;20.63;100.00
21980;BME280;11154;48.558;9.234;2023-09-12T03:20:42;97161.81;;;20.65;100.00
21980;BME280;11154;48.558;9.234;2023-09-12T03:22:46;97163.47;;;20.66;100.00
21980;BME280;11154;48.558;9.234;2023-09-12T03:24:47;97166.84;;;20.61;100.00
21980;BME280;11154;48.558;9.234;2023-09-12T03:26:49;97165.19;;;20.60;100.00
21980;BME280;11154;48.558;9.234;2023-09-12T03:28:50;97152.50;;;20.61;100.00
21980;BME280;11154;48.558;9.234;2023-09-12T03:30:52;97149.22;;;20.59;100.00
21980;BME280;11154;48.558;9.234;2023-09-12T03:32:53;97148.03;;;20.55;100.00
21980;BME280;11154;48.558;9.234;2023-09-12T03:34:55;97138.88;;;20.56;100.00
21980;BME280;11154;48.558;9.234;2023-09-12T03:36:57;97146.97;;;20.56;100.00
21980;BME280;11154;48.558;9.234;2023-09-12T03:39:00;97147.22;;;20.54;100.00
21980;BME280;11154;48.558;9.234;2023-09-12T03:41:01;97142.06;;;20.53;100.00
21980;BME280;11154;48.558;9.234;2023-09-12T03:43:03;97147.09;;;20.49;100.00
21980;BME280;11154;48.558;9.234;2023-09-12T03:45:05;97145.91;;;20.45;100.00
21980;BME280;11154;48.558;9.234;2023-09-12T03:47:06;97145.78;;;20.40;100.00
21980;BME280;11154;48.558;9.234;2023-09-12T03:49:08;97149.91;;;20.43;100.00
21980;BME280;11154;48.558;9.234;2023-09-12T03:51:09;97154.00;;;20.45;100.00
21980;BME280;11154;48.558;9.234;2023-09-12T03:53:13;97148.97;;;20.49;100.00
21980;BME280;11154;48.558;9.234;2023-09-12T03:55:16;97146.50;;;20.47;100.00
21980;BME280;11154;48.558;9.234;2023-09-12T03:57:17;97146.84;;;20.51;100.00
21980;BME280;11154;48.558;9.234;2023-09-12T03:59:18;97151.44;;;20.50;100.00
21980;BME280;11154;48.558;9.234;2023-09-12T04:01:20;97145.66;;;20.47;100.00
21980;BME280;11154;48.558;9.234;2023-09-12T04:03:20;97141.66;;;20.38;100.00
21980;BME280;11154;48.558;9.234;2023-09-12T04:05:22;97140.34;;;20.29;100.00
21980;BME280;11154;48.558;9.234;2023-09-12T04:07:24;97147.28;;;20.25;100.00
21980;BME280;11154;48.558;9.234;2023-09-12T04:09:25;97144.19;;;20.22;100.00
21980;BME280;11154;48.558;9.234;2023-09-12T04:11:29;97149.13;;;20.25;100.00
21980;BME280;11154;48.558;9.234;2023-09-12T04:13:31;97144.31;;;20.27;100.00
21980;BME280;11154;48.558;9.234;2023-09-12T04:15:32;97157.59;;;20.28;100.00
21980;BME280;11154;48.558;9.234;2023-09-12T04:17:34;97159.59;;;20.32;100.00
21980;BME280;11154;48.558;9.234;2023-09-12T04:19:34;97158.19;;;20.30;100.00
21980;BME280;11154;48.558;9.234;2023-09-12T04:21:36;97156.78;;;20.28;100.00
21980;BME280;11154;48.558;9.234;2023-09-12T04:23:38;97151.38;;;20.28;100.00
21980;BME280;11154;48.558;9.234;2023-09-12T04:25:41;97158.78;;;20.32;100.00
21980;BME280;11154;48.558;9.234;2023-09-12T04:27:44;97158.78;;;20.32;100.00
21980;BME280;11154;48.558;9.234;2023-09-12T04:29:46;97159.59;;;20.32;100.00
21980;BME280;11154;48.558;9.234;2023-09-12T04:31:48;97150.09;;;20.30;100.00
21980;BME280;11154;48.558;9.234;2023-09-12T04:33:50;97154.00;;;20.34;100.00
21980;BME280;11154;48.558;9.234;2023-09-12T04:35:51;97151.88;;;20.36;100.00
21980;BME280;11154;48.558;9.234;2023-09-12T04:37:53;97151.63;;;20.37;100.00
21980;BME280;11154;48.558;9.234;2023-09-12T04:39:54;97140.25;;;20.35;100.00
21980;BME280;11154;48.558;9.234;2023-09-12T04:41:56;97146.47;;;20.36;100.00
21980;BME280;11154;48.558;9.234;2023-09-12T04:43:59;97143.75;;;20.36;100.00
21980;BME280;11154;48.558;9.234;2023-09-12T04:46:03;97155.63;;;20.35;100.00
21980;BME280;11154;48.558;9.234;2023-09-12T04:48:05;97152.34;;;20.33;100.00
21980;BME280;11154;48.558;9.234;2023-09-12T04:50:07;97140.13;;;20.31;100.00
21980;BME280;11154;48.558;9.234;2023-09-12T04:52:09;97149.66;;;20.33;100.00
21980;BME280;11154;48.558;9.234;2023-09-12T04:54:10;97148.00;;;20.32;100.00
21980;BME280;11154;48.558;9.234;2023-09-12T04:56:12;97146.94;;;20.33;100.00
21980;BME280;11154;48.558;9.234;2023-09-12T04:58:14;97141.31;;;20.34;100.00
21980;BME280;11154;48.558;9.234;2023-09-12T05:00:17;97135.53;;;20.31;100.00
21980;BME280;11154;48.558;9.234;2023-09-12T05:02:18;97140.69;;;20.32;100.00
21980;BME280;11154;48.558;9.234;2023-09-12T05:04:20;97140.50;;;20.34;100.00
21980;BME280;11154;48.558;9.234;2023-09-12T05:06:22;97145.91;;;20.34;100.00
21980;BME280;11154;48.558;9.234;2023-09-12T05:08:23;97146.94;;;20.33;100.00
21980;BME280;11154;48.558;9.234;2023-09-12T05:10:25;97143.88;;;20.30;100.00
21980;BME280;11154;48.558;9.234;2023-09-12T05:12:26;97145.97;;;20.28;100.00
21980;BME280;11154;48.558;9.234;2023-09-12T05:14:28;97143.03;;;20.29;100.00
21980;BME280;11154;48.558;9.234;2023-09-12T05:16:31;97145.53;;;20.31;100.00
21980;BME280;11154;48.558;9.234;2023-09-12T05:18:33;97143.63;;;20.31;100.00
21980;BME280;11154;48.558;9.234;2023-09-12T05:20:34;97141.19;;;20.30;100.00
21980;BME280;11154;48.558;9.234;2023-09-12T05:22:36;97139.88;;;20.32;100.00
21980;BME280;11154;48.558;9.234;2023-09-12T05:24:37;97139.28;;;20.30;100.00
21980;BME280;11154;48.558;9.234;2023-09-12T05:26:39;97137.44;;;20.31;100.00
21980;BME280;11154;48.558;9.234;2023-09-12T05:28:41;97145.75;;;20.29;100.00
21980;BME280;11154;48.558;9.234;2023-09-12T05:30:42;97145.75;;;20.29;100.00
21980;BME280;11154;48.558;9.234;2023-09-12T05:32:45;97149.03;;;20.31;100.00
21980;BME280;11154;48.558;9.234;2023-09-12T05:34:47;97151.13;;;20.29;100.00
21980;BME280;11154;48.558;9.234;2023-09-12T05:36:50;97150.94;;;20.31;100.00
21980;BME280;11154;48.558;9.234;2023-09-12T05:38:51;97153.75;;;20.35;100.00
21980;BME280;11154;48.558;9.234;2023-09-12T05:40:53;97158.78;;;20.32;100.00
21980;BME280;11154;48.558;9.234;2023-09-12T05:42:54;97162.91;;;20.34;100.00
21980;BME280;11154;48.558;9.234;2023-09-12T05:44:56;97162.66;;;20.36;100.00
21980;BME280;11154;48.558;9.234;2023-09-12T05:46:57;97161.63;;;20.37;100.00
21980;BME280;11154;48.558;9.234;2023-09-12T05:49:00;97164.31;;;20.37;100.00
21980;BME280;11154;48.558;9.234;2023-09-12T05:51:02;97163.50;;;20.36;100.00
21980;BME280;11154;48.558;9.234;2023-09-12T05:53:04;97164.94;;;20.39;100.00
21980;BME280;11154;48.558;9.234;2023-09-12T05:55:06;97172.56;;;20.42;100.00
21980;BME280;11154;48.558;9.234;2023-09-12T05:57:09;97165.28;;;20.42;100.00
21980;BME280;11154;48.558;9.234;2023-09-12T05:59:11;97160.47;;;20.44;100.00
21980;BME280;11154;48.558;9.234;2023-09-12T06:01:12;97160.25;;;20.46;100.00
21980;BME280;11154;48.558;9.234;2023-09-12T06:03:15;97170.22;;;20.45;100.00
21980;BME280;11154;48.558;9.234;2023-09-12T06:05:18;97168.13;;;20.47;100.00
21980;BME280;11154;48.558;9.234;2023-09-12T06:07:20;97167.88;;;20.49;100.00
21980;BME280;11154;48.558;9.234;2023-09-12T06:09:21;97165.53;;;20.52;100.00
21980;BME280;11154;48.558;9.234;2023-09-12T06:11:23;97161.31;;;20.56;100.00
21980;BME280;11154;48.558;9.234;2023-09-12T06:13:25;97172.03;;;20.63;100.00
21980;BME280;11154;48.558;9.234;2023-09-12T06:15:26;97180.25;;;20.68;100.00
21980;BME280;11154;48.558;9.234;2023-09-12T06:17:28;97168.31;;;20.75;100.00
21980;BME280;11154;48.558;9.234;2023-09-12T06:19:29;97169.25;;;20.81;100.00
21980;BME280;11154;48.558;9.234;2023-09-12T06:21:32;97171.63;;;20.89;100.00
21980;BME280;11154;48.558;9.234;2023-09-12T06:23:34;97174.69;;;20.92;100.00
21980;BME280;11154;48.558;9.234;2023-09-12T06:25:36;97177.13;;;20.94;100.00
21980;BME280;11154;48.558;9.234;2023-09-12T06:27:37;97177.75;;;20.96;100.00
21980;BME280;11154;48.558;9.234;2023-09-12T06:29:39;97181.59;;;21.00;100.00
21980;BME280;11154;48.558;9.234;2023-09-12T06:31:41;97179.00;;;21.04;100.00
21980;BME280;11154;48.558;9.234;2023-09-12T06:33:42;97171.63;;;21.11;100.00
21980;BME280;11154;48.558;9.234;2023-09-12T06:35:48;97171.28;;;21.19;100.00
21980;BME280;11154;48.558;9.234;2023-09-12T06:37:51;97175.72;;;21.25;100.00
21980;BME280;11154;48.558;9.234;2023-09-12T06:39:52;97171.03;;;21.32;100.00
21980;BME280;11154;48.558;9.234;2023-09-12T06:41:53;97168.22;;;21.39;100.00
21980;BME280;11154;48.558;9.234;2023-09-12T06:43:54;97180.78;;;21.45;100.00
21980;BME280;11154;48.558;9.234;2023-09-12T06:45:58;97174.06;;;21.47;100.00
21980;BME280;11154;48.558;9.234;2023-09-12T06:47:59;97177.94;;;21.51;100.00
21980;BME280;11154;48.558;9.234;2023-09-12T06:50:01;97177.94;;;21.51;100.00
21980;BME280;11154;48.558;9.234;2023-09-12T06:52:04;97183.09;;;21.53;100.00
21980;BME280;11154;48.558;9.234;2023-09-12T06:54:07;97183.97;;;21.53;100.00
21980;BME280;11154;48.558;9.234;2023-09-12T06:56:09;97183.72;;;21.55;100.00
21980;BME280;11154;48.558;9.234;2023-09-12T06:58:10;97183.50;;;21.56;100.00
21980;BME280;11154;48.558;9.234;2023-09-12T07:00:13;97187.38;;;21.60;100.00
21980;BME280;11154;48.558;9.234;2023-09-12T07:02:15;97194.44;;;21.61;100.00
21980;BME280;11154;48.558;9.234;2023-09-12T07:04:18;97190.91;;;21.61;100.00
21980;BME280;11154;48.558;9.234;2023-09-12T07:06:20;97199.63;;;21.63;100.00
21980;BME280;11154;48.558;9.234;2023-09-12T07:08:22;97200.44;;;21.63;100.00
21980;BME280;11154;48.558;9.234;2023-09-12T07:10:25;97196.41;;;21.66;100.00
21980;BME280;11154;48.558;9.234;2023-09-12T07:12:26;97199.88;;;21.61;100.00
21980;BME280;11154;48.558;9.234;2023-09-12T07:14:29;97211.16;;;21.58;100.00
21980;BME280;11154;48.558;9.234;2023-09-12T07:16:32;97208.69;;;21.57;100.00
21980;BME280;11154;48.558;9.234;2023-09-12T07:18:33;97199.50;;;21.58;100.00
21980;BME280;11154;48.558;9.234;2023-09-12T07:20:35;97209.03;;;21.60;100.00
21980;BME280;11154;48.558;9.234;2023-09-12T07:22:37;97204.44;;;21.61;100.00
21980;BME280;11154;48.558;9.234;2023-09-12T07:24:39;97207.97;;;21.61;100.00
21980;BME280;11154;48.558;9.234;2023-09-12T07:26:42;97205.28;;;21.61;100.00
21980;BME280;11154;48.558;9.234;2023-09-12T07:28:44;97218.81;;;21.61;100.00
21980;BME280;11154;48.558;9.234;2023-09-12T07:30:46;97215.50;;;21.59;100.00
21980;BME280;11154;48.558;9.234;2023-09-12T07:32:47;97220.69;;;21.61;100.00
21980;BME280;11154;48.558;9.234;2023-09-12T07:34:50;97221.28;;;21.63;100.00
21980;BME280;11154;48.558;9.234;2023-09-12T07:36:52;97220.78;;;21.66;100.00
21980;BME280;11154;48.558;9.234;2023-09-12T07:38:54;97223.84;;;21.69;100.00
21980;BME280;11154;48.558;9.234;2023-09-12T07:40:56;97215.59;;;21.76;100.00
21980;BME280;11154;48.558;9.234;2023-09-12T07:42:59;97230.28;;;21.79;100.00
21980;BME280;11154;48.558;9.234;2023-09-12T07:45:01;97223.31;;;21.83;100.00
21980;BME280;11154;48.558;9.234;2023-09-12T07:47:03;97232.88;;;21.86;100.00
21980;BME280;11154;48.558;9.234;2023-09-12T07:49:05;97231.69;;;21.93;100.00
21980;BME280;11154;48.558;9.234;2023-09-12T07:51:13;97230.72;;;21.99;100.00
21980;BME280;11154;48.558;9.234;2023-09-12T07:53:15;97227.88;;;22.06;100.00
21980;BME280;11154;48.558;9.234;2023-09-12T07:55:17;97225.03;;;22.12;100.00
21980;BME280;11154;48.558;9.234;2023-09-12T07:57:18;97226.53;;;22.20;100.00
21980;BME280;11154;48.558;9.234;2023-09-12T07:59:20;97221.34;;;22.30;100.00
21980;BME280;11154;48.558;9.234;2023-09-12T08:01:22;97230.25;;;22.42;100.00
21980;BME280;11154;48.558;9.234;2023-09-12T08:03:24;97221.84;;;22.54;100.00
21980;BME280;11154;48.558;9.234;2023-09-12T08:05:25;97219.78;;;22.61;100.00
21980;BME280;11154;48.558;9.234;2023-09-12T08:07:27;97220.47;;;22.68;100.00
21980;BME280;11154;48.558;9.234;2023-09-12T08:09:47;97228.19;;;22.76;100.00
21980;BME280;11154;48.558;9.234;2023-09-12T08:11:49;97233.94;;;22.80;100.00
21980;BME280;11154;48.558;9.234;2023-09-12T08:13:51;97234.59;;;22.87;100.00
21980;BME280;11154;48.558;9.234;2023-09-12T08:15:54;97233.28;;;22.89;100.00
21980;BME280;11154;48.558;9.234;2023-09-12T08:17:55;97239.31;;;22.91;100.00
21980;BME280;11154;48.558;9.234;2023-09-12T08:19:57;97231.75;;;22.93;100.00
21980;BME280;11154;48.558;9.234;2023-09-12T08:21:58;97227.72;;;22.96;100.00
21980;BME280;11154;48.558;9.234;2023-09-12T08:23:59;97228.31;;;22.98;100.00
21980;BME280;11154;48.558;9.234;2023-09-12T08:26:01;97218.63;;;23.02;100.00
21980;BME280;11154;48.558;9.234;2023-09-12T08:28:03;97222.16;;;23.02;100.00
21980;BME280;11154;48.558;9.234;2023-09-12T08:30:06;97218.38;;;23.03;100.00
21980;BME280;11154;48.558;9.234;2023-09-12T08:32:09;97216.25;;;23.05;100.00
21980;BME280;11154;48.558;9.234;2023-09-12T08:34:11;97221.75;;;23.10;100.00
21980;BME280;11154;48.558;9.234;2023-09-12T08:36:12;97233.25;;;23.17;100.00
21980;BME280;11154;48.558;9.234;2023-09-12T08:38:14;97225.19;;;23.22;100.00
21980;BME280;11154;48.558;9.234;2023-09-12T08:40:15;97231.88;;;23.31;100.00
21980;BME280;11154;48.558;9.234;2023-09-12T08:42:17;97232.19;;;23.34;100.00
21980;BME280;11154;48.558;9.234;2023-09-12T08:44:19;97233.19;;;23.45;100.00
21980;BME280;11154;48.558;9.234;2023-09-12T08:46:22;97226.44;;;23.47;100.00
21980;BME280;11154;48.558;9.234;2023-09-12T08:48:25;97225.75;;;23.57;100.00
21980;BME280;11154;48.558;9.234;2023-09-12T08:50:29;97226.81;;;23.56;100.00
21980;BME280;11154;48.558;9.234;2023-09-12T08:52:33;97224.56;;;23.69;100.00
21980;BME280;11154;48.558;9.234;2023-09-12T08:54:35;97223.22;;;23.72;100.00
21980;BME280;11154;48.558;9.234;2023-09-12T08:56:38;97222.09;;;23.84;100.00
21980;BME280;11154;48.558;9.234;2023-09-12T08:58:40;97220.75;;;23.87;100.00
21980;BME280;11154;48.558;9.234;2023-09-12T09:00:42;97221.41;;;23.94;100.00
21980;BME280;11154;48.558;9.234;2023-09-12T09:02:44;97202.44;;;23.99;100.00
21980;BME280;11154;48.558;9.234;2023-09-12T09:04:49;97214.16;;;23.99;100.00
21980;BME280;11154;48.558;9.234;2023-09-12T09:06:51;97212.03;;;24.06;100.00
21980;BME280;11154;48.558;9.234;2023-09-12T09:08:54;97208.94;;;24.19;100.00
21980;BME280;11154;48.558;9.234;2023-09-12T09:10:56;97203.88;;;24.27;100.00
21980;BME280;11154;48.558;9.234;2023-09-12T09:12:58;97200.78;;;24.40;100.00
21980;BME280;11154;48.558;9.234;2023-09-12T09:15:19;97196.59;;;24.54;100.00
21980;BME280;11154;48.558;9.234;2023-09-12T09:17:21;97204.03;;;24.64;100.00
21980;BME280;11154;48.558;9.234;2023-09-12T09:19:43;97213.19;;;24.79;100.00
21980;BME280;11154;48.558;9.234;2023-09-12T09:21:46;97203.97;;;24.85;100.00
21980;BME280;11154;48.558;9.234;2023-09-12T09:23:48;97193.75;;;24.97;100.00
21980;BME280;11154;48.558;9.234;2023-09-12T09:25:52;97207.56;;;25.17;100.00
21980;BME280;11154;48.558;9.234;2023-09-12T09:27:53;97198.94;;;25.30;100.00
21980;BME280;11154;48.558;9.234;2023-09-12T09:29:54;97198.50;;;25.43;99.28
21980;BME280;11154;48.558;9.234;2023-09-12T09:31:58;97204.25;;;25.51;97.67
21980;BME280;11154;48.558;9.234;2023-09-12T09:34:02;97192.59;;;25.60;96.94
21980;BME280;11154;48.558;9.234;2023-09-12T09:36:06;97197.81;;;25.67;97.24
21980;BME280;11154;48.558;9.234;2023-09-12T09:38:11;97191.56;;;25.71;94.77
21980;BME280;11154;48.558;9.234;2023-09-12T09:40:17;97189.97;;;25.75;95.80
21980;BME280;11154;48.558;9.234;2023-09-12T09:42:18;97188.41;;;25.84;97.05
21980;BME280;11154;48.558;9.234;2023-09-12T09:44:21;97182.41;;;25.87;98.96
21980;BME280;11154;48.558;9.234;2023-09-12T09:46:23;97191.44;;;25.93;95.91
21980;BME280;11154;48.558;9.234;2023-09-12T09:48:25;97185.72;;;25.94;94.08
21980;BME280;11154;48.558;9.234;2023-09-12T09:50:27;97178.13;;;26.01;95.42
21980;BME280;11154;48.558;9.234;2023-09-12T09:52:29;97166.69;;;26.04;94.52
21980;BME280;11154;48.558;9.234;2023-09-12T09:54:32;97169.44;;;26.14;94.50
21980;BME280;11154;48.558;9.234;2023-09-12T09:56:44;97159.38;;;26.20;92.58
21980;BME280;11154;48.558;9.234;2023-09-12T09:58:46;97161.56;;;26.23;91.20
21980;BME280;11154;48.558;9.234;2023-09-12T10:00:49;97158.31;;;26.25;90.22
21980;BME280;11154;48.558;9.234;2023-09-12T10:02:51;97150.41;;;26.34;89.74
21980;BME280;11154;48.558;9.234;2023-09-12T10:04:53;97155.38;;;26.47;93.01
21980;BME280;11154;48.558;9.234;2023-09-12T10:06:56;97155.94;;;26.54;90.74
21980;BME280;11154;48.558;9.234;2023-09-12T10:08:59;97150.50;;;26.64;93.56
21980;BME280;11154;48.558;9.234;2023-09-12T10:11:03;97150.25;;;26.70;94.43
21980;BME280;11154;48.558;9.234;2023-09-12T10:13:05;97143.69;;;26.76;89.19
21980;BME280;11154;48.558;9.234;2023-09-12T10:15:09;97145.91;;;26.84;85.23
21980;BME280;11154;48.558;9.234;2023-09-12T10:17:19;97152.97;;;26.95;91.34
21980;BME280;11154;48.558;9.234;2023-09-12T10:19:26;97147.56;;;27.00;87.97
21980;BME280;11154;48.558;9.234;2023-09-12T10:21:33;97144.56;;;27.11;95.06
21980;BME280;11154;48.558;9.234;2023-09-12T10:23:38;97142.34;;;27.08;85.54
21980;BME280;11154;48.558;9.234;2023-09-12T10:25:43;97151.09;;;27.10;84.76
21980;BME280;11154;48.558;9.234;2023-09-12T10:27:48;97139.06;;;27.16;85.54
21980;BME280;11154;48.558;9.234;2023-09-12T10:29:51;97151.34;;;27.19;83.37
21980;BME280;11154;48.558;9.234;2023-09-12T10:31:53;97148.09;;;27.22;82.84
21980;BME280;11154;48.558;9.234;2023-09-12T10:33:55;97142.91;;;27.20;80.37
21980;BME280;11154;48.558;9.234;2023-09-12T10:35:57;97146.16;;;27.27;84.56
21980;BME280;11154;48.558;9.234;2023-09-12T10:38:01;97149.44;;;27.34;88.05
21980;BME280;11154;48.558;9.234;2023-09-12T10:40:05;97152.97;;;27.40;89.02
21980;BME280;11154;48.558;9.234;2023-09-12T10:42:09;97154.34;;;27.42;86.40